Etusivu
METAR-TAF:

METAR-TAF

Lentoasemat :

Colmenar Viejo, Espanja

Leveyspiiri: 40-39N, Pituuspiiri: 003-44W, korkeus merenpinnasta: -999 m

METAR: puuttuu

Aika: 23:39 (21:39 UTC)

Sääennuste

Tämä raportti tehtiin 4 tuntia ja 39 minuuttia sitten, kello 17.00 UTC
Ennuste voimassa 13. päivästä klo 18 UTC - 14. päivään klo 18 UTC
Tuuli 10 kn lounaasta
Näkyvyys 10 km tai enemmän
ei pilviä alle 1500 m:ssä eikä cumulonimbus-pilviä
Tulossa
13. päivästä klo 19 UTC - 13. päivään klo 22 UTC
Tuuli 3 kn eri suunnista
Tulossa
14. päivästä klo 06 UTC - 14. päivään klo 09 UTC
Tuuli 10 kn etelästä/lounaasta
Ajoittain
14. päivästä klo 12 UTC - 14. päivään klo 18 UTC
Tuuli 15 kn etelästä/lounaasta puuskistuen 25 kn:hen

TAF: LECV 131700Z 1318/1418 22010KT CAVOK TX30/1416Z TN16/1405Z BECMG 1319/1322 VRB03KT BECMG 1406/1409 21010KT TEMPO 1412/1418 21015G25KT

Säähavainnot ja -ennusteet yli 4000 lentoasemalta (METAR- ja TAF-raportit).

Käytössä olevat sääasemat on merkitty karttaan keltaisilla ja punaisilla pisteillä.

Aseta hiiri pisteen päälle nähdäksesi sääaseman nimen.

Klikkaa sitten nähdäksesi säähavainnot ja -ennusteet.

Kartan vaihtaminen: klikkaa mustalla rastilla varustettuja vihreitä pisteitä, niin voit zoomata sisään; viivalla varustettua vihreää pistettä, niin voit zoomata ulos tai vihreitä nuolia, niin pääset viereisille kartoille.


METAR-TAF: